VA50 weather

Woods Farm Airstrip
Hanover, Virginia, United States

Public forecast

Using degrees Fahrenheit for public forecast. Weather courtesy of forecast.io.

Closest aviation weather report (METAR) to Woods Farm Airstrip

Closest report is Hanover County Municipal Airport, 6.4 nm (11.8 km) W. Retrieved 2020/07/03 19:54 UTC (25 minutes ago):

KOFP 031954Z AUTO 29010KT 10SM FEW070 34/17 A2990 RMK AO2 SLP122 T03390172

Closest aviation forecast (TAF) to Woods Farm Airstrip

Closest forecast is Richmond International Airport, 12.6 nm (23.4 km) S. Retrieved 2020/07/03 18:06 UTC (2 hours ago):

TAF COR KRIC 031803Z 0318/0418 VRB05KT P6SM FEW060 FM040000 30003KT P6SM FEW120 FM040900 34004KT P6SM FEW080